createdAt,value
2023-03-15T00:00:10.434Z,2.28
2023-03-15T00:02:38.660Z,2.00
2023-03-15T00:05:07.890Z,2.00
2023-03-15T00:07:36.049Z,2.28
2023-03-15T00:10:06.630Z,2.42
2023-03-15T00:12:35.186Z,2.10
2023-03-15T00:15:03.438Z,2.00
2023-03-15T00:17:35.255Z,2.10
2023-03-15T00:20:04.208Z,2.38
2023-03-15T00:22:32.333Z,2.15
2023-03-15T00:25:00.495Z,2.00
2023-03-15T00:27:30.028Z,1.70
2023-03-15T00:30:01.045Z,2.15
2023-03-15T00:34:57.383Z,2.20
2023-03-15T00:37:26.152Z,2.10
2023-03-15T00:39:55.706Z,1.92
2023-03-15T00:42:27.758Z,2.22
2023-03-15T00:44:57.364Z,2.20
2023-03-15T00:47:25.583Z,2.20
2023-03-15T00:49:53.799Z,2.05
2023-03-15T00:52:22.136Z,2.45
2023-03-15T00:54:53.252Z,2.08
2023-03-15T00:57:21.776Z,2.10
2023-03-15T00:59:49.924Z,2.15
2023-03-15T01:02:22.062Z,1.90
2023-03-15T01:04:51.360Z,2.10
2023-03-15T01:07:19.649Z,1.85
2023-03-15T01:09:48.686Z,2.30
2023-03-15T01:12:16.976Z,1.92
2023-03-15T01:14:45.214Z,1.88
2023-03-15T01:17:13.409Z,2.13
2023-03-15T01:19:42.901Z,1.70
2023-03-15T01:22:11.216Z,2.38
2023-03-15T01:24:39.391Z,2.30
2023-03-15T01:27:07.664Z,1.95
2023-03-15T01:29:35.888Z,2.10
2023-03-15T01:32:04.032Z,2.10
2023-03-15T01:34:32.455Z,2.08
2023-03-15T01:37:02.892Z,2.03
2023-03-15T01:39:31.090Z,1.75
2023-03-15T01:41:59.236Z,1.85
2023-03-15T01:44:50.815Z,2.30
2023-03-15T01:47:19.199Z,2.10
2023-03-15T01:49:51.246Z,1.67
2023-03-15T01:52:24.499Z,1.80
2023-03-15T01:54:57.995Z,2.00
2023-03-15T01:57:30.732Z,1.70
2023-03-15T02:00:07.251Z,2.40
2023-03-15T02:02:35.436Z,2.10
2023-03-15T02:05:09.965Z,1.98
2023-03-15T02:07:50.138Z,2.00
2023-03-15T02:10:21.786Z,2.00
2023-03-15T02:12:53.701Z,1.88
2023-03-15T02:15:22.065Z,2.00
2023-03-15T02:17:50.742Z,2.03
2023-03-15T02:20:30.892Z,1.67
2023-03-15T02:23:03.411Z,1.90
2023-03-15T02:25:40.190Z,1.85
2023-03-15T02:28:12.510Z,1.60
2023-03-15T02:30:40.978Z,2.00
2023-03-15T02:33:15.982Z,1.85
2023-03-15T02:35:44.286Z,1.90
2023-03-15T02:38:12.542Z,1.90
2023-03-15T02:40:40.775Z,1.80
2023-03-15T02:43:15.048Z,1.88
2023-03-15T02:45:43.880Z,2.13
2023-03-15T02:48:12.949Z,1.70
2023-03-15T02:50:41.182Z,1.98
2023-03-15T02:53:09.575Z,1.58
2023-03-15T02:55:37.754Z,2.00
2023-03-15T02:58:06.094Z,1.88
2023-03-15T03:00:35.720Z,1.70
2023-03-15T03:03:03.846Z,1.40
2023-03-15T03:05:32.041Z,1.58
2023-03-15T03:08:00.164Z,1.60
2023-03-15T03:10:28.313Z,1.88
2023-03-15T03:12:58.597Z,1.52
2023-03-15T03:15:26.840Z,1.83
2023-03-15T03:17:56.380Z,1.60
2023-03-15T03:20:24.861Z,1.42
2023-03-15T03:22:55.945Z,1.83
2023-03-15T03:27:57.363Z,1.83
2023-03-15T03:30:26.096Z,1.73
2023-03-15T03:32:55.718Z,1.92
2023-03-15T03:35:23.978Z,1.67
2023-03-15T03:37:53.922Z,1.65
2023-03-15T03:40:22.150Z,1.88
2023-03-15T03:42:50.302Z,1.73
2023-03-15T03:45:18.506Z,1.85
2023-03-15T03:47:46.658Z,1.77
2023-03-15T03:50:16.457Z,2.13
2023-03-15T03:52:45.214Z,1.77
2023-03-15T03:55:13.766Z,1.52
2023-03-15T03:57:41.944Z,1.63
2023-03-15T04:00:14.269Z,1.50
2023-03-15T04:02:43.806Z,1.55
2023-03-15T04:05:12.521Z,1.58
2023-03-15T04:07:42.572Z,1.48
2023-03-15T04:10:14.805Z,1.70
2023-03-15T04:12:44.300Z,1.67
2023-03-15T04:15:13.104Z,1.75
2023-03-15T04:17:41.274Z,1.70
2023-03-15T04:20:12.147Z,1.90
2023-03-15T04:22:41.764Z,1.48
2023-03-15T04:25:10.385Z,1.70
2023-03-15T04:27:38.509Z,1.50
2023-03-15T04:30:08.199Z,1.52
2023-03-15T04:32:36.435Z,1.63
2023-03-15T04:35:05.574Z,1.42
2023-03-15T04:37:33.708Z,1.80
2023-03-15T04:40:07.142Z,1.48
2023-03-15T04:42:35.240Z,1.25
2023-03-15T04:45:04.323Z,1.30
2023-03-15T04:47:32.505Z,1.50
2023-03-15T04:50:00.703Z,1.75
2023-03-15T04:52:28.845Z,1.25
2023-03-15T04:54:57.001Z,1.55
2023-03-15T04:57:26.600Z,1.35
2023-03-15T04:59:54.777Z,1.30
2023-03-15T05:02:23.141Z,1.30
2023-03-15T05:04:51.322Z,1.23
2023-03-15T05:07:19.541Z,1.75
2023-03-15T05:09:48.091Z,1.30
2023-03-15T05:12:16.192Z,1.50
2023-03-15T05:14:46.004Z,1.15
2023-03-15T05:17:15.454Z,1.15
2023-03-15T05:19:43.610Z,1.35
2023-03-15T05:22:12.095Z,1.25
2023-03-15T05:24:40.237Z,1.60
2023-03-15T05:27:08.520Z,1.48
2023-03-15T05:29:36.667Z,1.20
2023-03-15T05:32:07.263Z,1.40
2023-03-15T05:34:35.591Z,1.50
2023-03-15T05:37:03.791Z,1.50
2023-03-15T05:39:34.734Z,1.33
2023-03-15T05:44:31.260Z,1.17
2023-03-15T05:46:59.383Z,1.10
2023-03-15T05:49:28.963Z,1.05
2023-03-15T05:51:57.142Z,1.38
2023-03-15T05:54:25.640Z,1.10
2023-03-15T05:56:53.826Z,1.20
2023-03-15T05:59:22.084Z,1.15
2023-03-15T06:01:50.305Z,1.33
2023-03-15T06:04:18.488Z,1.30
2023-03-15T06:06:48.238Z,1.58
2023-03-15T06:09:16.344Z,1.27
2023-03-15T06:11:44.563Z,1.27
2023-03-15T06:14:12.937Z,1.20
2023-03-15T06:16:41.086Z,1.08
2023-03-15T06:19:09.283Z,1.20
2023-03-15T06:21:37.396Z,1.25
2023-03-15T06:24:07.970Z,1.38
2023-03-15T06:26:36.193Z,1.10
2023-03-15T06:29:04.347Z,0.80
2023-03-15T06:31:32.517Z,1.40
2023-03-15T06:34:01.645Z,1.30
2023-03-15T06:36:30.904Z,1.08
2023-03-15T06:38:58.987Z,1.20
2023-03-15T06:41:28.552Z,1.00
2023-03-15T06:43:57.128Z,1.40
2023-03-15T06:46:25.333Z,1.00
2023-03-15T06:48:53.583Z,1.30
2023-03-15T06:51:21.748Z,1.48
2023-03-15T06:53:49.938Z,1.50
2023-03-15T06:56:18.149Z,1.23
2023-03-15T06:58:47.719Z,1.42
2023-03-15T07:01:16.916Z,1.08
2023-03-15T07:03:45.154Z,1.25
2023-03-15T07:06:13.347Z,1.40
2023-03-15T07:08:41.494Z,1.13
2023-03-15T07:11:09.647Z,1.23
2023-03-15T07:13:37.768Z,1.20
2023-03-15T07:16:07.630Z,1.65
2023-03-15T07:18:35.963Z,1.35
2023-03-15T07:21:05.843Z,1.20
2023-03-15T07:23:34.238Z,1.23
2023-03-15T07:26:02.548Z,1.30
2023-03-15T07:28:31.108Z,1.23
2023-03-15T07:31:00.862Z,1.50
2023-03-15T07:33:32.314Z,1.30
2023-03-15T07:36:01.170Z,1.30
2023-03-15T07:38:29.974Z,1.50
2023-03-15T07:40:58.415Z,1.20
2023-03-15T07:43:26.639Z,1.55
2023-03-15T07:45:54.821Z,1.38
2023-03-15T07:48:23.000Z,0.82
2023-03-15T07:50:52.527Z,1.20
2023-03-15T07:53:20.766Z,1.00
2023-03-15T07:55:49.516Z,1.25
2023-03-15T07:58:20.189Z,1.55
2023-03-15T08:00:48.845Z,1.25
2023-03-15T08:03:17.366Z,1.05
2023-03-15T08:05:45.522Z,1.02
2023-03-15T08:08:15.128Z,1.00
2023-03-15T08:10:44.226Z,1.58
2023-03-15T08:13:12.791Z,1.23
2023-03-15T08:15:41.417Z,1.05
2023-03-15T08:18:09.543Z,1.50
2023-03-15T08:20:37.713Z,1.15
2023-03-15T08:23:06.284Z,1.27
2023-03-15T08:25:36.584Z,1.23
2023-03-15T08:28:04.911Z,1.47
2023-03-15T08:30:33.020Z,1.55
2023-03-15T08:33:01.186Z,1.45
2023-03-15T08:35:29.457Z,1.30
2023-03-15T08:37:57.699Z,1.20
2023-03-15T08:40:25.889Z,1.15
2023-03-15T08:42:56.360Z,1.02
2023-03-15T08:45:25.106Z,1.02
2023-03-15T08:47:56.929Z,1.00
2023-03-15T08:50:25.810Z,1.15
2023-03-15T08:52:54.066Z,1.25
2023-03-15T08:55:22.352Z,1.30
2023-03-15T08:57:50.611Z,1.88
2023-03-15T09:00:23.054Z,1.17
2023-03-15T09:02:53.180Z,1.40
2023-03-15T09:05:22.676Z,1.60
2023-03-15T09:07:53.069Z,1.10
2023-03-15T09:10:22.132Z,1.02
2023-03-15T09:12:53.630Z,1.52
2023-03-15T09:15:23.361Z,1.10
2023-03-15T09:17:52.386Z,1.20
2023-03-15T09:20:22.950Z,1.80
2023-03-15T09:22:53.624Z,1.45
2023-03-15T09:25:22.365Z,1.92
2023-03-15T09:27:50.937Z,0.82
2023-03-15T09:30:20.014Z,1.42
2023-03-15T09:32:50.061Z,1.08
2023-03-15T09:35:20.018Z,0.85
2023-03-15T09:37:48.908Z,1.35
2023-03-15T09:40:21.236Z,1.17
2023-03-15T09:43:05.748Z,1.17
2023-03-15T09:45:49.968Z,1.10
2023-03-15T09:48:25.280Z,1.10
2023-03-15T09:50:58.318Z,1.13
2023-03-15T09:53:31.990Z,1.00
2023-03-15T09:56:00.361Z,1.00
2023-03-15T09:58:32.849Z,0.95
2023-03-15T10:01:03.966Z,1.20
2023-03-15T10:03:40.881Z,1.02
2023-03-15T10:06:14.342Z,1.23
2023-03-15T10:08:42.991Z,1.55
2023-03-15T10:11:22.449Z,1.08
2023-03-15T10:14:04.066Z,0.93
2023-03-15T10:16:41.352Z,1.30
2023-03-15T10:19:30.985Z,1.05
2023-03-15T10:22:04.449Z,1.00
2023-03-15T10:24:38.814Z,1.33
2023-03-15T10:27:21.761Z,1.00
2023-03-15T10:29:52.731Z,0.90
2023-03-15T10:32:24.591Z,0.90
2023-03-15T10:34:57.249Z,0.90
2023-03-15T10:37:26.278Z,1.10
2023-03-15T10:39:57.669Z,0.95
2023-03-15T10:42:31.370Z,1.30
2023-03-15T10:45:01.143Z,0.93
2023-03-15T10:47:29.543Z,0.80
2023-03-15T10:50:00.532Z,0.85
2023-03-15T10:55:06.715Z,0.82
2023-03-15T10:57:41.117Z,1.00
2023-03-15T11:00:31.782Z,1.60
2023-03-15T11:03:06.140Z,1.00
2023-03-15T11:05:42.954Z,0.98
2023-03-15T11:08:15.407Z,0.98
2023-03-15T11:10:45.426Z,1.00
2023-03-15T11:13:19.787Z,1.48
2023-03-15T11:16:01.447Z,1.08
2023-03-15T11:18:33.692Z,0.95
2023-03-15T11:21:05.905Z,1.45
2023-03-15T11:23:37.420Z,1.05
2023-03-15T11:26:06.233Z,1.23
2023-03-15T11:28:38.454Z,1.00
2023-03-15T11:31:07.376Z,1.25
2023-03-15T11:33:44.511Z,1.00
2023-03-15T11:36:19.691Z,1.27
2023-03-15T11:38:48.228Z,0.85
2023-03-15T11:41:28.948Z,1.05
2023-03-15T11:44:03.760Z,0.70
2023-03-15T11:46:37.401Z,1.10
2023-03-15T11:49:14.415Z,1.48
2023-03-15T11:51:44.771Z,1.30
2023-03-15T11:54:15.785Z,1.23
2023-03-15T11:56:49.943Z,1.60
2023-03-15T11:59:20.113Z,1.20
2023-03-15T12:01:50.412Z,1.20
2023-03-15T12:04:46.274Z,1.47
2023-03-15T12:08:16.747Z,1.65
2023-03-15T12:10:47.596Z,0.80
2023-03-15T12:13:23.941Z,1.25
2023-03-15T12:15:53.352Z,1.08
2023-03-15T12:18:31.250Z,0.75
2023-03-15T12:21:09.810Z,1.40
2023-03-15T12:23:46.651Z,1.27
2023-03-15T12:26:34.861Z,0.90
2023-03-15T12:29:15.880Z,1.05
2023-03-15T12:31:53.712Z,1.27
2023-03-15T12:34:28.744Z,1.30
2023-03-15T12:37:01.120Z,1.45
2023-03-15T12:39:46.619Z,1.23
2023-03-15T12:42:31.233Z,1.60
2023-03-15T12:45:32.832Z,1.10
2023-03-15T12:48:23.697Z,1.23
2023-03-15T12:50:55.382Z,1.48
2023-03-15T12:53:30.713Z,1.10
2023-03-15T12:56:23.906Z,1.50
2023-03-15T12:58:57.407Z,1.00
2023-03-15T13:01:26.705Z,1.40
2023-03-15T13:03:57.500Z,1.05
2023-03-15T13:06:36.765Z,1.40
2023-03-15T13:09:12.999Z,1.17
2023-03-15T13:11:45.745Z,1.10
2023-03-15T13:14:31.535Z,1.00
2023-03-15T13:17:07.483Z,1.05
2023-03-15T13:19:41.831Z,1.00
2023-03-15T13:22:18.550Z,0.80
2023-03-15T13:24:54.250Z,0.90
2023-03-15T13:27:36.376Z,1.27
2023-03-15T13:30:25.574Z,1.23
2023-03-15T13:33:07.552Z,1.13
2023-03-15T13:35:43.938Z,1.15
2023-03-15T13:38:31.337Z,1.00
2023-03-15T13:41:01.943Z,1.25
2023-03-15T13:43:34.039Z,1.58
2023-03-15T13:46:03.182Z,2.63
2023-03-15T13:48:33.449Z,1.15
2023-03-15T13:51:06.043Z,1.03
2023-03-15T13:53:49.009Z,1.00
2023-03-15T13:56:20.501Z,1.30
2023-03-15T13:58:52.060Z,1.35
2023-03-15T14:01:23.231Z,1.00
2023-03-15T14:03:59.022Z,1.20
2023-03-15T14:06:28.699Z,1.15
2023-03-15T14:09:02.116Z,1.50
2023-03-15T14:11:37.423Z,0.90
2023-03-15T14:14:24.206Z,0.95
2023-03-15T14:17:04.713Z,1.20
2023-03-15T14:19:35.447Z,1.00
2023-03-15T14:22:13.720Z,1.20
2023-03-15T14:24:43.932Z,1.25
2023-03-15T14:27:19.075Z,1.10
2023-03-15T14:29:51.080Z,1.10
2023-03-15T14:32:28.892Z,1.00
2023-03-15T14:35:03.340Z,1.23
2023-03-15T14:37:36.442Z,1.00
2023-03-15T14:40:23.372Z,0.90
2023-03-15T14:42:52.601Z,1.02
2023-03-15T14:45:23.615Z,1.05
2023-03-15T14:50:36.585Z,0.90
2023-03-15T14:53:05.252Z,0.90
2023-03-15T14:55:36.042Z,1.02
2023-03-15T14:58:05.326Z,1.05
2023-03-15T15:00:35.578Z,1.88
2023-03-15T15:03:05.019Z,1.20
2023-03-15T15:05:36.211Z,1.52
2023-03-15T15:08:07.811Z,1.35
2023-03-15T15:10:37.214Z,1.58
2023-03-15T15:13:07.300Z,1.40
2023-03-15T15:15:53.862Z,1.00
2023-03-15T15:18:23.612Z,1.20
2023-03-15T15:20:55.440Z,1.05
2023-03-15T15:23:26.934Z,1.02
2023-03-15T15:25:57.575Z,0.98
2023-03-15T15:28:36.614Z,1.38
2023-03-15T15:31:08.135Z,1.17
2023-03-15T15:33:36.553Z,1.20
2023-03-15T15:36:05.092Z,1.05
2023-03-15T15:38:38.903Z,1.23
2023-03-15T15:41:12.111Z,0.98
2023-03-15T15:43:40.573Z,1.17
2023-03-15T15:46:13.191Z,1.15
2023-03-15T15:48:41.917Z,0.95
2023-03-15T15:51:27.737Z,1.52
2023-03-15T15:53:58.190Z,1.10
2023-03-15T15:56:33.236Z,1.42
2023-03-15T15:59:04.351Z,1.17
2023-03-15T16:01:34.140Z,1.23
2023-03-15T16:04:03.786Z,1.20
2023-03-15T16:06:32.588Z,1.55
2023-03-15T16:09:01.248Z,1.17
2023-03-15T16:11:30.297Z,1.08
2023-03-15T16:13:58.448Z,1.00
2023-03-15T16:16:27.565Z,1.25
2023-03-15T16:18:57.205Z,1.10
2023-03-15T16:21:33.861Z,1.08
2023-03-15T16:24:06.765Z,1.13
2023-03-15T16:26:36.382Z,1.70
2023-03-15T16:29:14.169Z,1.02
2023-03-15T16:31:42.285Z,0.82
2023-03-15T16:34:13.245Z,1.05
2023-03-15T16:39:13.375Z,1.10
2023-03-15T16:41:42.436Z,1.08
2023-03-15T16:44:12.990Z,1.23
2023-03-15T16:46:41.341Z,0.90
2023-03-15T16:49:09.886Z,1.23
2023-03-15T16:51:41.486Z,0.90
2023-03-15T16:54:21.699Z,1.17
2023-03-15T16:56:52.856Z,0.75
2023-03-15T16:59:21.224Z,0.90
2023-03-15T17:01:50.635Z,0.88
2023-03-15T17:04:18.903Z,0.98
2023-03-15T17:06:48.624Z,0.90
2023-03-15T17:09:20.634Z,0.80
2023-03-15T17:11:50.121Z,0.80
2023-03-15T17:14:21.918Z,0.80
2023-03-15T17:16:50.187Z,0.85
2023-03-15T17:19:18.421Z,1.00
2023-03-15T17:21:48.364Z,1.02
2023-03-15T17:24:16.756Z,1.00
2023-03-15T17:26:45.825Z,0.80
2023-03-15T17:29:16.498Z,0.82
2023-03-15T17:31:45.736Z,1.23
2023-03-15T17:34:13.910Z,1.02
2023-03-15T17:36:42.433Z,1.20
2023-03-15T17:39:17.269Z,1.42
2023-03-15T17:41:47.731Z,1.77
2023-03-15T17:44:16.208Z,1.73
2023-03-15T17:46:44.445Z,1.70
2023-03-15T17:49:15.758Z,1.75
2023-03-15T17:51:44.152Z,1.40
2023-03-15T17:54:16.985Z,1.73
2023-03-15T17:56:45.570Z,2.03
2023-03-15T17:59:14.571Z,1.75
2023-03-15T18:01:43.642Z,1.60
2023-03-15T18:04:13.103Z,1.80
2023-03-15T18:06:42.165Z,1.58
2023-03-15T18:09:12.475Z,1.77
2023-03-15T18:11:43.653Z,2.33
2023-03-15T18:16:41.265Z,1.40
2023-03-15T18:19:09.467Z,1.40
2023-03-15T18:21:38.111Z,1.38
2023-03-15T18:24:06.708Z,1.83
2023-03-15T18:26:34.976Z,1.50
2023-03-15T18:29:04.655Z,1.55
2023-03-15T18:31:32.979Z,1.40
2023-03-15T18:34:01.745Z,1.70
2023-03-15T18:36:29.924Z,1.27
2023-03-15T18:38:58.347Z,2.08
2023-03-15T18:41:27.168Z,1.50
2023-03-15T18:43:55.691Z,1.45
2023-03-15T18:46:27.055Z,1.50
2023-03-15T18:48:55.526Z,1.70
2023-03-15T18:51:26.226Z,1.63
2023-03-15T18:53:55.147Z,1.63
2023-03-15T18:56:25.614Z,1.40
2023-03-15T18:58:54.872Z,1.20
2023-03-15T19:01:25.023Z,1.30
2023-03-15T19:03:54.884Z,1.40
2023-03-15T19:06:24.091Z,1.30
2023-03-15T19:08:54.321Z,1.73
2023-03-15T19:11:24.155Z,1.30
2023-03-15T19:13:52.670Z,1.38
2023-03-15T19:16:21.733Z,1.20
2023-03-15T19:18:52.309Z,1.15
2023-03-15T19:21:21.304Z,1.05
2023-03-15T19:23:49.540Z,1.48
2023-03-15T19:26:17.813Z,1.42
2023-03-15T19:28:46.119Z,1.20
2023-03-15T19:31:14.314Z,1.05
2023-03-15T19:33:42.606Z,1.40
2023-03-15T19:36:12.205Z,1.40
2023-03-15T19:38:40.855Z,1.23
2023-03-15T19:41:12.503Z,1.40
2023-03-15T19:43:43.347Z,1.17
2023-03-15T19:46:14.031Z,1.10
2023-03-15T19:48:42.750Z,1.20
2023-03-15T19:51:12.415Z,1.13
2023-03-15T19:53:40.934Z,1.17
2023-03-15T19:56:10.644Z,1.25
2023-03-15T19:58:38.881Z,1.20
2023-03-15T20:01:07.468Z,1.40
2023-03-15T20:03:35.799Z,1.33
2023-03-15T20:06:08.770Z,1.00
2023-03-15T20:08:38.373Z,1.10
2023-03-15T20:11:07.574Z,0.98
2023-03-15T20:13:36.573Z,1.23
2023-03-15T20:16:05.932Z,1.20
2023-03-15T20:18:34.426Z,1.20
2023-03-15T20:21:02.644Z,1.00
2023-03-15T20:23:31.357Z,1.20
2023-03-15T20:26:10.722Z,1.17
2023-03-15T20:28:39.489Z,1.10
2023-03-15T20:31:09.777Z,1.05
2023-03-15T20:33:38.133Z,1.30
2023-03-15T20:36:07.480Z,1.08
2023-03-15T20:38:37.296Z,1.00
2023-03-15T20:41:08.139Z,1.20
2023-03-15T20:43:36.583Z,1.10
2023-03-15T20:46:06.257Z,0.98
2023-03-15T20:48:36.150Z,1.23
2023-03-15T20:51:05.853Z,1.00
2023-03-15T20:53:36.041Z,1.17
2023-03-15T20:56:05.138Z,0.97
2023-03-15T20:58:35.245Z,1.20
2023-03-15T21:01:04.483Z,1.27
2023-03-15T21:03:34.530Z,1.58
2023-03-15T21:06:03.932Z,0.82
2023-03-15T21:08:32.552Z,1.42
2023-03-15T21:11:00.813Z,0.90
2023-03-15T21:13:29.670Z,0.93
2023-03-15T21:16:00.411Z,1.17
2023-03-15T21:18:29.166Z,0.90
2023-03-15T21:20:59.940Z,1.33
2023-03-15T21:23:31.667Z,1.48
2023-03-15T21:26:02.206Z,1.40
2023-03-15T21:28:32.237Z,1.50
2023-03-15T21:31:02.197Z,0.90
2023-03-15T21:33:32.602Z,0.95
2023-03-15T21:36:02.478Z,1.67
2023-03-15T21:38:33.189Z,1.20
2023-03-15T21:41:07.036Z,0.95
2023-03-15T21:43:35.973Z,1.40
2023-03-15T21:46:08.361Z,1.08
2023-03-15T21:48:38.116Z,0.80
2023-03-15T21:51:08.230Z,0.90
2023-03-15T21:53:38.748Z,1.53
2023-03-15T21:56:07.645Z,1.15
2023-03-15T21:58:35.793Z,0.80
2023-03-15T22:01:08.179Z,1.10
2023-03-15T22:03:37.791Z,0.90
2023-03-15T22:06:06.506Z,1.00
2023-03-15T22:08:34.911Z,0.82
2023-03-15T22:11:04.610Z,1.00
2023-03-15T22:13:32.890Z,1.00
2023-03-15T22:16:01.417Z,1.00
2023-03-15T22:18:32.064Z,1.00
2023-03-15T22:21:00.313Z,1.23
2023-03-15T22:23:28.932Z,1.10
2023-03-15T22:25:57.231Z,0.80
2023-03-15T22:28:26.177Z,1.05
2023-03-15T22:30:54.655Z,1.05
2023-03-15T22:33:23.277Z,1.05
2023-03-15T22:35:57.488Z,1.20
2023-03-15T22:38:26.927Z,1.13
2023-03-15T22:41:01.957Z,0.88
2023-03-15T22:43:30.300Z,1.02
2023-03-15T22:45:58.501Z,0.80
2023-03-15T22:48:26.775Z,1.02
2023-03-15T22:51:00.654Z,0.90
2023-03-15T22:53:30.246Z,1.23
2023-03-15T22:55:59.045Z,1.10
2023-03-15T22:58:27.689Z,1.00
2023-03-15T23:00:56.239Z,1.00
2023-03-15T23:03:26.320Z,0.80
2023-03-15T23:05:57.424Z,1.13
2023-03-15T23:10:57.519Z,0.95
2023-03-15T23:13:26.084Z,1.00
2023-03-15T23:15:54.388Z,0.85
2023-03-15T23:18:23.436Z,0.85
2023-03-15T23:20:51.575Z,0.88
2023-03-15T23:23:19.832Z,1.10
2023-03-15T23:25:53.992Z,0.77
2023-03-15T23:28:24.410Z,1.05
2023-03-15T23:30:52.752Z,1.13
2023-03-15T23:33:21.100Z,0.70
2023-03-15T23:35:49.382Z,1.00
2023-03-15T23:38:17.699Z,1.25
2023-03-15T23:40:45.871Z,1.17
2023-03-15T23:43:15.540Z,1.00
2023-03-15T23:45:43.765Z,1.00
2023-03-15T23:48:12.502Z,1.00
2023-03-15T23:50:44.313Z,0.60
2023-03-15T23:53:12.617Z,0.90
2023-03-15T23:55:41.222Z,1.00
2023-03-15T23:58:09.464Z,0.90
